createdAt,value
2023-02-11T00:00:34.005Z,70.67
2023-02-11T00:03:00.579Z,71.11
2023-02-11T00:05:27.047Z,70.11
2023-02-11T00:07:53.444Z,71.06
2023-02-11T00:10:19.904Z,70.57
2023-02-11T00:12:46.481Z,71.23
2023-02-11T00:15:13.059Z,71.44
2023-02-11T00:17:39.482Z,71.50
2023-02-11T00:20:08.318Z,71.44
2023-02-11T00:22:35.832Z,71.49
2023-02-11T00:25:02.479Z,71.31
2023-02-11T00:27:29.370Z,71.43
2023-02-11T00:29:56.118Z,71.23
2023-02-11T00:32:22.771Z,70.80
2023-02-11T00:34:52.495Z,70.47
2023-02-11T00:37:18.960Z,70.89
2023-02-11T00:39:46.061Z,70.44
2023-02-11T00:42:15.055Z,70.69
2023-02-11T00:44:41.538Z,70.93
2023-02-11T00:47:08.324Z,70.41
2023-02-11T00:49:35.212Z,70.75
2023-02-11T00:52:02.061Z,70.53
2023-02-11T00:54:30.003Z,70.78
2023-02-11T00:56:56.541Z,70.36
2023-02-11T00:59:23.305Z,71.05
2023-02-11T01:01:51.379Z,71.05
2023-02-11T01:04:18.104Z,70.53
2023-02-11T01:06:44.568Z,69.95
2023-02-11T01:09:11.015Z,70.07
2023-02-11T01:11:37.496Z,70.50
2023-02-11T01:14:04.010Z,70.01
2023-02-11T01:16:30.501Z,69.68
2023-02-11T01:18:58.790Z,70.04
2023-02-11T01:21:25.816Z,70.02
2023-02-11T01:23:52.600Z,70.30
2023-02-11T01:26:19.269Z,70.44
2023-02-11T01:28:45.839Z,70.80
2023-02-11T01:31:12.359Z,70.17
2023-02-11T01:33:38.975Z,69.68
2023-02-11T01:36:06.311Z,69.77
2023-02-11T01:38:33.227Z,69.44
2023-02-11T01:41:05.506Z,69.33
2023-02-11T01:43:35.301Z,69.47
2023-02-11T01:46:15.138Z,69.04
2023-02-11T01:48:44.734Z,68.99
2023-02-11T01:51:16.760Z,68.49
2023-02-11T01:54:02.476Z,68.69
2023-02-11T01:56:49.769Z,68.90
2023-02-11T01:59:24.093Z,68.73
2023-02-11T02:01:53.593Z,68.14
2023-02-11T02:04:21.453Z,68.39
2023-02-11T02:07:01.991Z,68.11
2023-02-11T02:09:31.278Z,68.35
2023-02-11T02:11:57.826Z,68.50
2023-02-11T02:14:24.401Z,68.10
2023-02-11T02:16:50.893Z,68.27
2023-02-11T02:19:36.096Z,67.82
2023-02-11T02:22:14.687Z,67.75
2023-02-11T02:25:32.501Z,67.54
2023-02-11T02:28:08.856Z,67.68
2023-02-11T02:30:57.160Z,67.48
2023-02-11T02:33:49.430Z,66.74
2023-02-11T02:36:22.733Z,67.55
2023-02-11T02:39:12.569Z,67.06
2023-02-11T02:41:39.525Z,66.67
2023-02-11T02:44:07.697Z,67.15
2023-02-11T02:46:35.073Z,67.16
2023-02-11T02:49:02.008Z,66.73
2023-02-11T02:51:54.488Z,66.25
2023-02-11T02:54:46.203Z,67.32
2023-02-11T02:57:45.062Z,67.03
2023-02-11T03:00:35.602Z,66.08
2023-02-11T03:03:26.477Z,66.21
2023-02-11T03:05:58.903Z,65.68
2023-02-11T03:09:11.542Z,66.46
2023-02-11T03:11:38.497Z,65.36
2023-02-11T03:14:09.472Z,65.10
2023-02-11T03:16:39.260Z,65.54
2023-02-11T03:19:11.282Z,65.33
2023-02-11T03:21:38.756Z,64.93
2023-02-11T03:24:08.774Z,64.71
2023-02-11T03:26:43.238Z,65.23
2023-02-11T03:29:34.804Z,65.00
2023-02-11T03:32:12.196Z,65.92
2023-02-11T03:34:44.748Z,65.80
2023-02-11T03:37:25.415Z,67.00
2023-02-11T03:39:59.358Z,67.08
2023-02-11T03:42:29.036Z,66.22
2023-02-11T03:45:04.149Z,66.69
2023-02-11T03:47:32.260Z,65.90
2023-02-11T03:49:59.675Z,66.46
2023-02-11T03:52:28.129Z,66.36
2023-02-11T03:54:57.681Z,66.62
2023-02-11T03:57:24.269Z,66.29
2023-02-11T03:59:56.161Z,65.52
2023-02-11T04:02:25.712Z,66.15
2023-02-11T04:04:52.210Z,65.63
2023-02-11T04:07:18.616Z,65.59
2023-02-11T04:09:45.198Z,65.39
2023-02-11T04:12:11.680Z,65.37
2023-02-11T04:14:38.455Z,66.02
2023-02-11T04:17:05.358Z,65.72
2023-02-11T04:19:32.244Z,65.69
2023-02-11T04:21:58.777Z,65.62
2023-02-11T04:24:25.346Z,65.83
2023-02-11T04:26:52.666Z,65.58
2023-02-11T04:29:19.641Z,66.41
2023-02-11T04:31:46.598Z,65.44
2023-02-11T04:34:13.323Z,66.49
2023-02-11T04:36:39.967Z,65.80
2023-02-11T04:39:06.699Z,66.24
2023-02-11T04:41:33.235Z,66.61
2023-02-11T04:43:59.809Z,65.85
2023-02-11T04:46:26.471Z,66.17
2023-02-11T04:48:53.048Z,66.32
2023-02-11T04:51:19.482Z,66.82
2023-02-11T04:53:45.928Z,66.89
2023-02-11T04:56:12.386Z,66.68
2023-02-11T04:58:38.867Z,67.23
2023-02-11T05:01:09.797Z,66.87
2023-02-11T05:03:37.005Z,68.02
2023-02-11T05:06:04.088Z,67.36
2023-02-11T05:08:30.738Z,68.37
2023-02-11T05:10:57.669Z,68.20
2023-02-11T05:13:24.347Z,69.05
2023-02-11T05:15:51.280Z,69.42
2023-02-11T05:18:17.927Z,69.70
2023-02-11T05:20:44.739Z,69.90
2023-02-11T05:23:12.069Z,69.38
2023-02-11T05:25:38.780Z,69.11
2023-02-11T05:28:05.680Z,69.79
2023-02-11T05:30:32.903Z,70.37
2023-02-11T05:32:59.452Z,70.68
2023-02-11T05:35:25.910Z,70.27
2023-02-11T05:37:52.432Z,70.83
2023-02-11T05:40:18.970Z,70.98
2023-02-11T05:42:45.455Z,70.89
2023-02-11T05:45:11.920Z,71.06
2023-02-11T05:47:38.475Z,71.13
2023-02-11T05:50:05.532Z,71.73
2023-02-11T05:52:32.072Z,71.88
2023-02-11T05:54:58.698Z,71.65
2023-02-11T05:57:25.245Z,72.20
2023-02-11T05:59:51.805Z,71.97
2023-02-11T06:02:18.265Z,71.52
2023-02-11T06:04:44.794Z,72.47
2023-02-11T06:07:11.697Z,72.74
2023-02-11T06:09:38.176Z,72.60
2023-02-11T06:12:05.033Z,73.14
2023-02-11T06:14:33.790Z,73.16
2023-02-11T06:17:01.149Z,73.36
2023-02-11T06:19:27.704Z,73.39
2023-02-11T06:21:55.380Z,73.74
2023-02-11T06:24:47.778Z,73.52
2023-02-11T06:27:09.180Z,73.58
2023-02-11T06:29:35.947Z,73.88
2023-02-11T06:32:02.476Z,73.47
2023-02-11T06:34:29.038Z,73.68
2023-02-11T06:36:55.591Z,72.26
2023-02-11T06:39:22.085Z,72.82
2023-02-11T06:41:48.788Z,72.76
2023-02-11T06:44:15.287Z,72.63
2023-02-11T06:46:41.828Z,71.49
2023-02-11T06:49:08.289Z,71.60
2023-02-11T06:51:34.787Z,71.77
2023-02-11T06:54:01.177Z,71.20
2023-02-11T06:56:27.856Z,71.67
2023-02-11T06:58:57.804Z,71.58
2023-02-11T07:01:25.127Z,71.40
2023-02-11T07:03:51.805Z,71.38
2023-02-11T07:06:21.519Z,71.45
2023-02-11T07:08:48.698Z,72.09
2023-02-11T07:11:17.789Z,71.56
2023-02-11T07:13:44.539Z,71.87
2023-02-11T07:16:16.595Z,72.34
2023-02-11T07:18:43.769Z,73.07
2023-02-11T07:21:13.142Z,72.96
2023-02-11T07:23:40.876Z,72.56
2023-02-11T07:26:09.550Z,72.96
2023-02-11T07:28:37.501Z,73.08
2023-02-11T07:31:12.404Z,72.92
2023-02-11T07:33:38.998Z,73.55
2023-02-11T07:36:06.837Z,74.65
2023-02-11T07:38:34.567Z,74.18
2023-02-11T07:41:02.678Z,75.27
2023-02-11T07:43:29.475Z,75.16
2023-02-11T07:45:55.970Z,75.09
2023-02-11T07:48:22.416Z,75.69
2023-02-11T07:50:49.089Z,76.13
2023-02-11T07:53:15.685Z,76.35
2023-02-11T07:55:45.189Z,75.62
2023-02-11T07:58:11.759Z,76.07
2023-02-11T08:00:38.988Z,76.33
2023-02-11T08:03:07.820Z,76.43
2023-02-11T08:05:38.177Z,76.31
2023-02-11T08:08:04.683Z,75.93
2023-02-11T08:10:31.357Z,74.81
2023-02-11T08:12:57.880Z,74.41
2023-02-11T08:15:26.506Z,74.44
2023-02-11T08:17:52.884Z,73.92
2023-02-11T08:20:19.422Z,73.50
2023-02-11T08:22:45.910Z,73.44
2023-02-11T08:25:12.320Z,73.72
2023-02-11T08:27:38.919Z,72.39
2023-02-11T08:30:05.899Z,71.93
2023-02-11T08:32:34.712Z,70.97
2023-02-11T08:35:01.306Z,71.95
2023-02-11T08:37:27.841Z,70.71
2023-02-11T08:39:55.023Z,70.83
2023-02-11T08:42:21.436Z,70.52
2023-02-11T08:44:47.941Z,70.05
2023-02-11T08:47:14.482Z,69.74
2023-02-11T08:49:42.349Z,70.08
2023-02-11T08:52:08.939Z,69.93
2023-02-11T08:54:35.503Z,69.80
2023-02-11T08:57:02.063Z,69.43
2023-02-11T08:59:29.122Z,69.68
2023-02-11T09:01:56.339Z,69.52
2023-02-11T09:04:22.876Z,68.83
2023-02-11T09:06:49.380Z,68.54
2023-02-11T09:09:16.287Z,68.46
2023-02-11T09:11:44.357Z,68.12
2023-02-11T09:14:20.135Z,68.29
2023-02-11T09:16:47.345Z,67.93
2023-02-11T09:19:13.916Z,68.45
2023-02-11T09:21:40.444Z,68.58
2023-02-11T09:24:07.140Z,68.41
2023-02-11T09:26:35.360Z,68.40
2023-02-11T09:29:03.116Z,68.13
2023-02-11T09:31:31.051Z,68.17
2023-02-11T09:34:04.362Z,67.94
2023-02-11T09:36:34.233Z,69.40
2023-02-11T09:39:01.900Z,68.44
2023-02-11T09:42:05.864Z,69.62
2023-02-11T09:44:34.377Z,69.16
2023-02-11T09:47:03.649Z,69.08
2023-02-11T09:49:40.380Z,70.07
2023-02-11T09:52:45.738Z,69.06
2023-02-11T09:55:22.067Z,69.07
2023-02-11T09:57:48.876Z,69.81
2023-02-11T10:00:29.255Z,69.37
2023-02-11T10:03:03.939Z,69.76
2023-02-11T10:05:49.008Z,69.09
2023-02-11T10:08:34.285Z,69.44
2023-02-11T10:11:13.871Z,69.22
2023-02-11T10:14:01.943Z,68.88
2023-02-11T10:16:49.712Z,68.46
2023-02-11T10:19:33.857Z,68.26
2023-02-11T10:22:18.869Z,68.48
2023-02-11T10:24:55.438Z,68.26
2023-02-11T10:27:31.307Z,68.13
2023-02-11T10:30:19.167Z,67.95
2023-02-11T10:32:51.266Z,67.88
2023-02-11T10:35:21.911Z,67.75
2023-02-11T10:37:48.918Z,67.71
2023-02-11T10:40:33.876Z,67.06
2023-02-11T10:43:05.152Z,66.70
2023-02-11T10:45:38.801Z,66.75
2023-02-11T10:48:07.195Z,67.08
2023-02-11T10:50:35.101Z,67.48
2023-02-11T10:53:22.288Z,67.78
2023-02-11T10:55:57.263Z,68.07
2023-02-11T10:58:29.393Z,68.37
2023-02-11T11:00:56.905Z,67.93
2023-02-11T11:03:25.522Z,68.18
2023-02-11T11:05:57.413Z,68.55
2023-02-11T11:08:50.759Z,68.46
2023-02-11T11:11:19.616Z,68.34
2023-02-11T11:13:52.290Z,68.59
2023-02-11T11:16:25.658Z,68.54
2023-02-11T11:19:13.690Z,68.75
2023-02-11T11:21:46.082Z,68.16
2023-02-11T11:24:24.538Z,68.10
2023-02-11T11:26:54.591Z,68.63
2023-02-11T11:29:39.617Z,68.52
2023-02-11T11:32:11.427Z,69.24
2023-02-11T11:34:41.844Z,68.88
2023-02-11T11:37:21.216Z,68.48
2023-02-11T11:39:57.846Z,68.61
2023-02-11T11:42:35.289Z,67.87
2023-02-11T11:45:14.961Z,69.16
2023-02-11T11:47:45.423Z,69.61
2023-02-11T11:50:21.241Z,68.83
2023-02-11T11:53:25.592Z,68.92
2023-02-11T11:56:02.786Z,68.84
2023-02-11T11:58:30.524Z,69.09
2023-02-11T12:01:12.817Z,68.69
2023-02-11T12:03:48.713Z,68.77
2023-02-11T12:06:27.126Z,68.88
2023-02-11T12:09:00.886Z,69.27
2023-02-11T12:11:46.569Z,68.21
2023-02-11T12:14:28.377Z,68.66
2023-02-11T12:17:07.580Z,69.08
2023-02-11T12:19:40.081Z,68.69
2023-02-11T12:22:12.125Z,69.12
2023-02-11T12:24:50.920Z,70.19
2023-02-11T12:27:32.492Z,70.12
2023-02-11T12:30:02.332Z,70.07
2023-02-11T12:32:46.970Z,70.92
2023-02-11T12:35:38.532Z,70.69
2023-02-11T12:38:28.577Z,70.79
2023-02-11T12:41:15.349Z,70.72
2023-02-11T12:43:43.613Z,71.95
2023-02-11T12:46:47.723Z,72.00
2023-02-11T12:49:23.197Z,71.95
2023-02-11T12:52:08.747Z,71.64
2023-02-11T12:55:01.284Z,71.94
2023-02-11T12:57:30.290Z,72.23
2023-02-11T13:00:15.330Z,72.66
2023-02-11T13:02:44.623Z,71.98
2023-02-11T13:05:27.761Z,72.28
2023-02-11T13:07:59.385Z,73.55
2023-02-11T13:10:34.507Z,72.92
2023-02-11T13:13:17.911Z,73.50
2023-02-11T13:16:09.175Z,73.48
2023-02-11T13:18:55.985Z,72.13
2023-02-11T13:21:43.458Z,73.10
2023-02-11T13:24:49.084Z,71.94
2023-02-11T13:27:33.018Z,72.52
2023-02-11T13:30:22.049Z,73.16
2023-02-11T13:32:54.740Z,72.86
2023-02-11T13:35:31.780Z,73.50
2023-02-11T13:38:01.005Z,72.74
2023-02-11T13:40:39.605Z,72.93
2023-02-11T13:43:20.434Z,72.33
2023-02-11T13:45:48.489Z,72.64
2023-02-11T13:48:48.200Z,72.88
2023-02-11T13:51:32.368Z,72.57
2023-02-11T13:53:59.252Z,72.09
2023-02-11T13:56:40.149Z,73.25
2023-02-11T13:59:30.618Z,73.04
2023-02-11T14:02:18.656Z,72.65
2023-02-11T14:05:22.255Z,72.84
2023-02-11T14:08:30.455Z,72.96
2023-02-11T14:11:14.722Z,73.00
2023-02-11T14:13:47.405Z,72.79
2023-02-11T14:16:22.637Z,73.12
2023-02-11T14:18:54.641Z,72.35
2023-02-11T14:21:30.510Z,73.33
2023-02-11T14:24:04.756Z,72.57
2023-02-11T14:26:47.627Z,73.00
2023-02-11T14:29:33.376Z,72.69
2023-02-11T14:32:24.180Z,72.39
2023-02-11T14:35:35.871Z,72.70
2023-02-11T14:38:26.914Z,72.08
2023-02-11T14:41:14.691Z,72.35
2023-02-11T14:43:46.933Z,72.63
2023-02-11T14:46:15.962Z,71.89
2023-02-11T14:48:45.971Z,72.63
2023-02-11T14:51:19.766Z,72.74
2023-02-11T14:53:49.146Z,73.12
2023-02-11T14:56:31.021Z,72.63
2023-02-11T14:58:58.132Z,72.98
2023-02-11T15:01:36.226Z,73.17
2023-02-11T15:04:05.638Z,73.01
2023-02-11T15:06:37.051Z,73.03
2023-02-11T15:09:16.210Z,72.47
2023-02-11T15:11:44.428Z,73.20
2023-02-11T15:14:34.869Z,73.03
2023-02-11T15:17:04.332Z,72.62
2023-02-11T15:19:41.056Z,73.00
2023-02-11T15:22:18.477Z,72.64
2023-02-11T15:24:45.427Z,73.15
2023-02-11T15:27:18.486Z,72.78
2023-02-11T15:29:49.387Z,73.27
2023-02-11T15:32:21.778Z,72.75
2023-02-11T15:34:50.356Z,72.87
2023-02-11T15:37:23.591Z,73.60
2023-02-11T15:39:50.740Z,73.57
2023-02-11T15:42:20.822Z,72.51
2023-02-11T15:44:54.303Z,73.48
2023-02-11T15:47:29.399Z,73.99
2023-02-11T15:49:55.903Z,74.73
2023-02-11T15:52:25.218Z,75.01
2023-02-11T15:54:52.787Z,75.39
2023-02-11T15:57:20.094Z,74.75
2023-02-11T15:59:49.545Z,75.42
2023-02-11T16:02:24.321Z,75.52
2023-02-11T16:04:59.216Z,76.16
2023-02-11T16:07:40.993Z,75.84
2023-02-11T16:10:19.116Z,75.95
2023-02-11T16:13:07.082Z,75.70
2023-02-11T16:15:33.897Z,76.19
2023-02-11T16:18:02.020Z,76.11
2023-02-11T16:20:28.463Z,75.86
2023-02-11T16:22:55.074Z,76.23
2023-02-11T16:25:22.224Z,76.13
2023-02-11T16:27:52.064Z,76.38
2023-02-11T16:30:23.864Z,76.94
2023-02-11T16:32:53.084Z,76.28
2023-02-11T16:35:19.591Z,76.77
2023-02-11T16:37:46.071Z,77.90
2023-02-11T16:40:13.190Z,78.99
2023-02-11T16:42:39.838Z,79.49
2023-02-11T16:45:06.785Z,80.06
2023-02-11T16:47:34.437Z,81.66
2023-02-11T16:50:01.476Z,81.79
2023-02-11T16:52:31.409Z,83.12
2023-02-11T16:54:58.787Z,82.92
2023-02-11T16:57:29.546Z,84.35
2023-02-11T16:59:56.563Z,84.68
2023-02-11T17:02:26.091Z,85.44
2023-02-11T17:04:54.396Z,86.12
2023-02-11T17:07:21.090Z,88.18
2023-02-11T17:09:47.547Z,87.87
2023-02-11T17:12:13.932Z,88.95
2023-02-11T17:14:40.670Z,89.54
2023-02-11T17:17:08.052Z,90.04
2023-02-11T17:19:34.493Z,89.68
2023-02-11T17:22:00.948Z,90.15
2023-02-11T17:24:27.426Z,90.10
2023-02-11T17:26:54.748Z,89.96
2023-02-11T17:29:24.446Z,89.90
2023-02-11T17:31:52.436Z,89.73
2023-02-11T17:34:20.279Z,89.91
2023-02-11T17:36:46.732Z,90.19
2023-02-11T17:39:13.319Z,89.63
2023-02-11T17:41:40.474Z,89.49
2023-02-11T17:44:08.558Z,88.99
2023-02-11T17:46:35.806Z,89.34
2023-02-11T17:49:02.944Z,89.75
2023-02-11T17:51:32.592Z,90.20
2023-02-11T17:54:01.449Z,89.93
2023-02-11T17:56:29.874Z,90.36
2023-02-11T17:58:56.289Z,90.09
2023-02-11T18:01:23.098Z,90.61
2023-02-11T18:03:49.613Z,90.98
2023-02-11T18:06:16.087Z,91.17
2023-02-11T18:08:43.087Z,91.57
2023-02-11T18:11:10.880Z,92.54
2023-02-11T18:13:37.257Z,92.37
2023-02-11T18:16:04.660Z,93.30
2023-02-11T18:18:31.564Z,92.72
2023-02-11T18:20:59.508Z,93.18
2023-02-11T18:23:26.678Z,93.64
2023-02-11T18:25:53.782Z,93.90
2023-02-11T18:28:20.424Z,94.09
2023-02-11T18:30:47.010Z,94.11
2023-02-11T18:33:14.580Z,95.22
2023-02-11T18:35:41.713Z,94.92
2023-02-11T18:38:08.944Z,94.23
2023-02-11T18:40:38.469Z,94.91
2023-02-11T18:43:05.020Z,94.79
2023-02-11T18:45:31.628Z,95.16
2023-02-11T18:48:01.517Z,95.59
2023-02-11T18:50:28.016Z,95.20
2023-02-11T18:52:54.449Z,95.58
2023-02-11T18:55:25.307Z,95.70
2023-02-11T18:57:52.929Z,95.19
2023-02-11T19:00:20.501Z,95.99
2023-02-11T19:02:47.024Z,95.52
2023-02-11T19:05:13.843Z,95.25
2023-02-11T19:07:40.236Z,95.01
2023-02-11T19:10:07.463Z,95.97
2023-02-11T19:12:34.282Z,96.21
2023-02-11T19:15:00.860Z,95.75
2023-02-11T19:17:27.677Z,95.86
2023-02-11T19:19:54.478Z,95.50
2023-02-11T19:22:21.049Z,95.44
2023-02-11T19:24:47.553Z,95.39
2023-02-11T19:27:14.104Z,95.65
2023-02-11T19:29:40.691Z,95.81
2023-02-11T19:32:07.274Z,96.21
2023-02-11T19:34:40.936Z,96.36
2023-02-11T19:37:08.640Z,96.57
2023-02-11T19:39:35.097Z,95.99
2023-02-11T19:42:01.649Z,95.88
2023-02-11T19:44:28.166Z,96.31
2023-02-11T19:46:54.777Z,95.87
2023-02-11T19:49:26.238Z,95.85
2023-02-11T19:51:54.264Z,96.48
2023-02-11T19:54:21.980Z,95.91
2023-02-11T19:56:48.789Z,96.50
2023-02-11T19:59:16.034Z,95.83
2023-02-11T20:01:43.413Z,95.75
2023-02-11T20:04:10.758Z,96.09
2023-02-11T20:06:37.220Z,96.35
2023-02-11T20:09:06.960Z,96.74
2023-02-11T20:11:34.712Z,96.70
2023-02-11T20:14:01.189Z,96.21
2023-02-11T20:16:46.051Z,96.74
2023-02-11T20:19:17.815Z,96.46
2023-02-11T20:21:47.068Z,96.72
2023-02-11T20:24:14.857Z,96.70
2023-02-11T20:26:42.461Z,96.44
2023-02-11T20:29:09.358Z,97.19
2023-02-11T20:31:36.339Z,96.94
2023-02-11T20:34:02.957Z,96.30
2023-02-11T20:36:32.303Z,96.91
2023-02-11T20:39:00.351Z,96.43
2023-02-11T20:41:32.666Z,97.00
2023-02-11T20:44:01.075Z,96.13
2023-02-11T20:46:30.165Z,96.19
2023-02-11T20:48:57.202Z,97.01
2023-02-11T20:51:26.748Z,96.94
2023-02-11T20:53:53.587Z,97.03
2023-02-11T20:56:22.409Z,97.26
2023-02-11T20:58:49.519Z,97.42
2023-02-11T21:01:22.002Z,96.52
2023-02-11T21:03:55.314Z,96.59
2023-02-11T21:06:22.430Z,97.30
2023-02-11T21:08:49.047Z,97.45
2023-02-11T21:11:16.320Z,96.88
2023-02-11T21:13:43.483Z,96.78
2023-02-11T21:16:15.320Z,97.12
2023-02-11T21:18:42.112Z,96.66
2023-02-11T21:21:08.842Z,96.06
2023-02-11T21:23:35.864Z,97.23
2023-02-11T21:26:02.308Z,97.36
2023-02-11T21:28:28.845Z,96.57
2023-02-11T21:30:56.699Z,97.50
2023-02-11T21:33:24.147Z,97.10
2023-02-11T21:35:54.219Z,97.26
2023-02-11T21:38:20.933Z,96.56
2023-02-11T21:40:47.348Z,96.85
2023-02-11T21:43:13.828Z,97.28
2023-02-11T21:45:44.318Z,96.65
2023-02-11T21:48:11.128Z,97.36
2023-02-11T21:50:45.078Z,97.64
2023-02-11T21:53:12.485Z,97.75
2023-02-11T21:55:39.817Z,96.60
2023-02-11T21:58:06.647Z,97.51
2023-02-11T22:00:33.897Z,97.06
2023-02-11T22:03:00.433Z,97.81
2023-02-11T22:05:27.006Z,97.01
2023-02-11T22:07:53.515Z,97.37
2023-02-11T22:10:20.339Z,97.57
2023-02-11T22:12:46.826Z,96.68
2023-02-11T22:15:13.520Z,97.88
2023-02-11T22:17:40.271Z,97.74
2023-02-11T22:20:07.262Z,96.99
2023-02-11T22:22:33.784Z,96.71
2023-02-11T22:25:01.880Z,97.58
2023-02-11T22:27:28.328Z,97.27
2023-02-11T22:29:54.756Z,96.61
2023-02-11T22:32:21.327Z,97.11
2023-02-11T22:34:47.791Z,96.70
2023-02-11T22:37:15.023Z,96.87
2023-02-11T22:39:42.722Z,97.59
2023-02-11T22:42:09.630Z,97.74
2023-02-11T22:44:37.036Z,97.19
2023-02-11T22:47:03.516Z,96.82
2023-02-11T22:49:32.416Z,97.77
2023-02-11T22:51:59.560Z,97.52
2023-02-11T22:54:25.966Z,97.32
2023-02-11T22:56:53.289Z,96.74
2023-02-11T22:59:20.016Z,97.37
2023-02-11T23:01:46.710Z,96.73
2023-02-11T23:04:14.866Z,97.28
2023-02-11T23:06:41.349Z,97.25
2023-02-11T23:09:09.381Z,96.87
2023-02-11T23:11:35.978Z,97.62
2023-02-11T23:14:02.960Z,97.79
2023-02-11T23:16:31.935Z,96.73
2023-02-11T23:18:59.765Z,97.64
2023-02-11T23:21:28.911Z,97.05
2023-02-11T23:23:57.373Z,97.71
2023-02-11T23:26:24.363Z,97.44
2023-02-11T23:28:50.964Z,97.23
2023-02-11T23:31:23.539Z,96.79
2023-02-11T23:33:50.638Z,97.49
2023-02-11T23:36:18.633Z,97.45
2023-02-11T23:38:45.392Z,97.09
2023-02-11T23:41:11.901Z,96.31
2023-02-11T23:43:38.820Z,97.18
2023-02-11T23:46:05.901Z,96.62
2023-02-11T23:48:32.701Z,97.05
2023-02-11T23:50:59.675Z,96.58
2023-02-11T23:53:26.123Z,97.14
2023-02-11T23:55:52.699Z,96.80
2023-02-11T23:58:19.486Z,96.17
